Terminal Aerodrome Forecast
Issued by NWS

Current Version | Previous Version | Graphics & Text | Print | Product List | Glossary Off
Versions: 1 2 3 4 5 6 7 8 9 10 11 12 13

000
FTUS42 KILM 271720
TAFCRE
TAF
KCRE 271720Z 2718/2818 21012KT P6SM FEW060
     FM280400 24007KT P6SM SCT080
     FM281200 25006KT 6SM HZ SKC
     FM281600 22010KT P6SM SKC=

USA.gov is the U.S. government's official web portal to all federal, state and local government web resources and services.